createdAt,value
2022-08-03T00:00:45.322Z,22.13
2022-08-03T00:03:14.931Z,22.08
2022-08-03T00:06:04.626Z,22.04
2022-08-03T00:08:34.460Z,21.99
2022-08-03T00:11:10.676Z,21.94
2022-08-03T00:13:40.128Z,21.87
2022-08-03T00:16:13.394Z,21.75
2022-08-03T00:18:43.040Z,21.70
2022-08-03T00:21:12.560Z,21.66
2022-08-03T00:23:52.233Z,21.63
2022-08-03T00:26:23.658Z,21.58
2022-08-03T00:28:53.542Z,21.51
2022-08-03T00:31:39.861Z,21.50
2022-08-03T00:34:12.589Z,21.47
2022-08-03T00:36:42.755Z,21.45
2022-08-03T00:39:12.232Z,21.47
2022-08-03T00:41:43.371Z,21.49
2022-08-03T00:44:12.756Z,21.49
2022-08-03T00:46:42.059Z,21.47
2022-08-03T00:49:11.635Z,21.47
2022-08-03T00:51:44.154Z,21.45
2022-08-03T00:54:13.768Z,21.45
2022-08-03T00:56:59.647Z,21.41
2022-08-03T00:59:30.462Z,21.38
2022-08-03T01:02:00.456Z,21.36
2022-08-03T01:04:30.314Z,21.33
2022-08-03T01:07:44.059Z,21.35
2022-08-03T01:10:31.662Z,21.32
2022-08-03T01:13:05.057Z,21.28
2022-08-03T01:15:46.731Z,21.29
2022-08-03T01:18:22.982Z,21.26
2022-08-03T01:20:58.047Z,21.22
2022-08-03T01:23:35.779Z,21.19
2022-08-03T01:26:35.861Z,21.09
2022-08-03T01:29:30.342Z,20.95
2022-08-03T01:33:02.882Z,20.87
2022-08-03T01:35:03.107Z,20.87
2022-08-03T01:37:42.410Z,20.85
2022-08-03T01:40:13.551Z,20.82
2022-08-03T01:42:44.322Z,20.83
2022-08-03T01:45:17.957Z,20.78
2022-08-03T01:47:52.427Z,20.77
2022-08-03T01:50:25.256Z,20.74
2022-08-03T01:52:55.793Z,20.70
2022-08-03T01:55:27.503Z,20.68
2022-08-03T01:58:05.490Z,20.68
2022-08-03T02:00:39.957Z,20.63
2022-08-03T02:03:11.218Z,20.61
2022-08-03T02:05:42.644Z,20.61
2022-08-03T02:08:14.687Z,20.60
2022-08-03T02:10:46.252Z,20.60
2022-08-03T02:13:19.588Z,20.63
2022-08-03T02:15:49.771Z,20.63
2022-08-03T02:18:21.314Z,20.62
2022-08-03T02:20:52.665Z,20.61
2022-08-03T02:23:22.170Z,20.57
2022-08-03T02:25:55.874Z,20.55
2022-08-03T02:28:32.187Z,20.49
2022-08-03T02:31:05.480Z,20.48
2022-08-03T02:33:39.126Z,20.49
2022-08-03T02:36:10.674Z,20.46
2022-08-03T02:38:43.948Z,20.45
2022-08-03T02:41:20.622Z,20.44
2022-08-03T02:44:06.345Z,20.40
2022-08-03T02:46:41.180Z,20.36
2022-08-03T02:49:49.669Z,20.34
2022-08-03T02:52:04.501Z,20.31
2022-08-03T02:54:36.492Z,20.27
2022-08-03T02:57:06.182Z,20.28
2022-08-03T02:59:37.015Z,20.28
2022-08-03T03:02:07.304Z,20.28
2022-08-03T03:04:38.310Z,20.24
2022-08-03T03:07:18.384Z,20.23
2022-08-03T03:09:48.213Z,20.24
2022-08-03T03:12:19.004Z,20.25
2022-08-03T03:14:48.340Z,20.23
2022-08-03T03:17:20.347Z,20.24
2022-08-03T03:19:52.404Z,20.24
2022-08-03T03:22:22.834Z,20.19
2022-08-03T03:24:54.723Z,20.17
2022-08-03T03:27:24.994Z,20.13
2022-08-03T03:29:57.036Z,20.09
2022-08-03T03:32:26.442Z,20.09
2022-08-03T03:34:59.234Z,20.09
2022-08-03T03:37:31.625Z,20.08
2022-08-03T03:40:01.161Z,20.11
2022-08-03T03:42:30.643Z,20.12
2022-08-03T03:45:00.206Z,20.12
2022-08-03T03:47:32.268Z,20.10
2022-08-03T03:50:02.827Z,20.06
2022-08-03T03:52:32.235Z,20.05
2022-08-03T03:55:01.929Z,20.05
2022-08-03T03:57:32.194Z,20.07
2022-08-03T04:00:01.567Z,20.06
2022-08-03T04:02:33.688Z,20.06
2022-08-03T04:05:15.593Z,20.04
2022-08-03T04:08:12.975Z,20.04
2022-08-03T04:10:56.832Z,20.03
2022-08-03T04:13:27.847Z,19.98
2022-08-03T04:16:00.128Z,20.02
2022-08-03T04:18:32.981Z,19.99
2022-08-03T04:21:06.458Z,20.01
2022-08-03T04:23:38.514Z,20.02
2022-08-03T04:26:10.753Z,20.02
2022-08-03T04:28:42.358Z,20.05
2022-08-03T04:31:12.404Z,20.02
2022-08-03T04:33:43.010Z,20.06
2022-08-03T04:36:17.612Z,20.06
2022-08-03T04:39:05.492Z,20.05
2022-08-03T04:42:07.065Z,20.05
2022-08-03T04:44:28.820Z,20.04
2022-08-03T04:46:59.609Z,20.04
2022-08-03T04:49:29.707Z,20.09
2022-08-03T04:51:59.511Z,20.10
2022-08-03T04:54:28.883Z,20.14
2022-08-03T04:56:58.354Z,20.18
2022-08-03T04:59:27.715Z,20.21
2022-08-03T05:01:57.527Z,20.22
2022-08-03T05:04:26.937Z,20.21
2022-08-03T05:06:56.371Z,20.28
2022-08-03T05:09:46.015Z,20.30
2022-08-03T05:12:17.574Z,20.33
2022-08-03T05:14:47.106Z,20.38
2022-08-03T05:17:16.480Z,20.40
2022-08-03T05:19:45.869Z,20.45
2022-08-03T05:22:15.494Z,20.49
2022-08-03T05:24:44.983Z,20.55
2022-08-03T05:27:19.342Z,20.61
2022-08-03T05:29:49.551Z,20.67
2022-08-03T05:32:20.165Z,20.72
2022-08-03T05:34:49.869Z,20.77
2022-08-03T05:37:19.219Z,20.83
2022-08-03T05:39:48.737Z,20.88
2022-08-03T05:42:18.714Z,20.95
2022-08-03T05:44:48.083Z,21.01
2022-08-03T05:47:17.415Z,21.09
2022-08-03T05:49:46.720Z,21.16
2022-08-03T05:52:17.664Z,21.22
2022-08-03T05:54:57.324Z,21.32
2022-08-03T05:57:28.318Z,21.39
2022-08-03T05:59:58.621Z,21.52
2022-08-03T06:02:30.175Z,21.59
2022-08-03T06:04:59.600Z,21.67
2022-08-03T06:07:29.007Z,21.76
2022-08-03T06:10:36.061Z,21.86
2022-08-03T06:12:49.391Z,22.01
2022-08-03T06:15:18.803Z,22.12
2022-08-03T06:17:50.310Z,22.19
2022-08-03T06:20:21.517Z,22.33
2022-08-03T06:23:00.009Z,22.44
2022-08-03T06:25:30.886Z,22.54
2022-08-03T06:28:01.035Z,22.65
2022-08-03T06:30:30.528Z,22.79
2022-08-03T06:32:59.814Z,22.94
2022-08-03T06:35:29.726Z,23.05
2022-08-03T06:37:59.015Z,23.21
2022-08-03T06:40:31.509Z,23.30
2022-08-03T06:43:02.415Z,23.41
2022-08-03T06:45:33.236Z,23.52
2022-08-03T06:48:07.385Z,23.67
2022-08-03T06:50:38.347Z,23.78
2022-08-03T06:53:09.100Z,23.88
2022-08-03T06:55:52.396Z,24.12
2022-08-03T06:58:23.650Z,24.39
2022-08-03T07:00:52.998Z,24.69
2022-08-03T07:03:22.394Z,25.01
2022-08-03T07:05:52.087Z,25.27
2022-08-03T07:08:34.169Z,25.53
2022-08-03T07:11:04.066Z,25.71
2022-08-03T07:13:33.714Z,25.89
2022-08-03T07:16:03.179Z,26.10
2022-08-03T07:18:32.524Z,26.38
2022-08-03T07:21:01.959Z,26.61
2022-08-03T07:23:31.253Z,26.80
2022-08-03T07:26:00.547Z,26.97
2022-08-03T07:28:30.034Z,27.17
2022-08-03T07:31:00.183Z,27.33
2022-08-03T07:33:29.699Z,27.49
2022-08-03T07:35:58.987Z,27.65
2022-08-03T07:38:29.006Z,27.86
2022-08-03T07:40:58.404Z,28.02
2022-08-03T07:43:27.701Z,28.32
2022-08-03T07:45:57.069Z,28.58
2022-08-03T07:48:26.440Z,28.76
2022-08-03T07:50:55.877Z,28.77
2022-08-03T07:53:25.271Z,28.87
2022-08-03T07:55:54.633Z,29.02
2022-08-03T07:58:24.680Z,29.06
2022-08-03T08:00:54.431Z,29.09
2022-08-03T08:03:24.548Z,29.01
2022-08-03T08:05:53.937Z,29.14
2022-08-03T08:08:23.667Z,29.26
2022-08-03T08:10:58.405Z,29.42
2022-08-03T08:13:28.539Z,29.56
2022-08-03T08:15:57.907Z,29.65
2022-08-03T08:18:29.569Z,29.68
2022-08-03T08:20:58.935Z,29.64
2022-08-03T08:23:42.032Z,29.69
2022-08-03T08:26:13.352Z,29.69
2022-08-03T08:28:42.839Z,29.62
2022-08-03T08:31:12.278Z,29.67
2022-08-03T08:34:03.253Z,29.76
2022-08-03T08:36:32.131Z,29.85
2022-08-03T08:39:01.572Z,29.77
2022-08-03T08:41:33.834Z,29.74
2022-08-03T08:44:04.137Z,29.72
2022-08-03T08:46:36.008Z,29.55
2022-08-03T08:49:05.556Z,29.48
2022-08-03T08:51:54.434Z,29.38
2022-08-03T08:54:28.955Z,29.43
2022-08-03T08:57:16.263Z,29.55
2022-08-03T08:59:57.350Z,29.69
2022-08-03T09:02:28.403Z,29.65
2022-08-03T09:04:58.170Z,29.66
2022-08-03T09:07:27.738Z,29.65
2022-08-03T09:10:08.298Z,29.72
2022-08-03T09:12:45.819Z,29.83
2022-08-03T09:15:24.510Z,29.96
2022-08-03T09:17:58.723Z,29.96
2022-08-03T09:20:31.475Z,29.98
2022-08-03T09:23:19.133Z,30.10
2022-08-03T09:26:01.777Z,30.18
2022-08-03T09:29:00.005Z,30.18
2022-08-03T09:31:35.857Z,30.10
2022-08-03T09:34:08.169Z,30.11
2022-08-03T09:36:38.481Z,30.22
2022-08-03T09:39:37.520Z,30.38
2022-08-03T09:42:23.837Z,30.38
2022-08-03T09:44:54.948Z,30.49
2022-08-03T09:47:32.509Z,30.57
2022-08-03T09:50:05.228Z,30.72
2022-08-03T09:52:49.906Z,30.87
2022-08-03T09:56:33.845Z,30.99
2022-08-03T09:58:17.473Z,31.21
2022-08-03T10:01:07.978Z,31.47
2022-08-03T10:04:04.389Z,31.70
2022-08-03T10:06:35.004Z,31.83
2022-08-03T10:09:12.778Z,31.98
2022-08-03T10:11:43.246Z,32.04
2022-08-03T10:14:19.213Z,32.09
2022-08-03T10:16:49.903Z,32.19
2022-08-03T10:19:19.945Z,32.28
2022-08-03T10:21:53.761Z,32.33
2022-08-03T10:24:27.933Z,32.60
2022-08-03T10:27:05.667Z,32.48
2022-08-03T10:29:43.474Z,32.46
2022-08-03T10:32:31.654Z,32.60
2022-08-03T10:35:19.575Z,32.62
2022-08-03T10:38:05.991Z,32.54
2022-08-03T10:40:48.500Z,32.72
2022-08-03T10:43:35.499Z,32.73
2022-08-03T10:46:08.609Z,32.75
2022-08-03T10:48:39.319Z,32.77
2022-08-03T10:51:09.900Z,32.89
2022-08-03T10:53:44.114Z,32.94
2022-08-03T10:56:54.608Z,32.85
2022-08-03T10:59:49.608Z,32.89
2022-08-03T11:02:19.551Z,33.01
2022-08-03T11:04:48.997Z,33.12
2022-08-03T11:07:18.617Z,33.28
2022-08-03T11:09:51.154Z,33.38
2022-08-03T11:12:30.334Z,33.45
2022-08-03T11:15:09.634Z,33.18
2022-08-03T11:17:46.561Z,33.01
2022-08-03T11:20:51.485Z,33.10
2022-08-03T11:24:05.073Z,33.29
2022-08-03T11:26:13.326Z,33.50
2022-08-03T11:28:46.952Z,33.56
2022-08-03T11:31:49.922Z,33.50
2022-08-03T11:34:16.628Z,33.60
2022-08-03T11:37:28.555Z,33.66
2022-08-03T11:40:02.712Z,33.58
2022-08-03T11:42:32.282Z,33.55
2022-08-03T11:45:03.299Z,33.48
2022-08-03T11:47:33.032Z,33.55
2022-08-03T11:50:03.848Z,33.53
2022-08-03T11:52:42.622Z,33.63
2022-08-03T11:55:17.470Z,33.79
2022-08-03T11:59:15.142Z,33.99
2022-08-03T12:00:36.829Z,34.08
2022-08-03T12:03:12.189Z,34.11
2022-08-03T12:05:51.880Z,34.22
2022-08-03T12:08:33.829Z,33.91
2022-08-03T12:11:07.329Z,33.83
2022-08-03T12:14:08.861Z,33.75
2022-08-03T12:16:36.687Z,33.81
2022-08-03T12:19:08.333Z,33.85
2022-08-03T12:21:37.574Z,33.83
2022-08-03T12:24:08.405Z,33.82
2022-08-03T12:26:59.497Z,33.91
2022-08-03T12:29:29.834Z,33.93
2022-08-03T12:31:59.415Z,34.09
2022-08-03T12:34:48.501Z,34.22
2022-08-03T12:37:24.025Z,34.12
2022-08-03T12:40:02.475Z,34.00
2022-08-03T12:42:42.315Z,33.99
2022-08-03T12:45:25.657Z,34.05
2022-08-03T12:48:00.434Z,34.06
2022-08-03T12:50:32.175Z,34.03
2022-08-03T12:53:04.731Z,34.05
2022-08-03T12:55:56.575Z,34.14
2022-08-03T12:58:35.602Z,34.30
2022-08-03T13:01:09.136Z,34.43
2022-08-03T13:03:50.143Z,34.54
2022-08-03T13:06:23.765Z,34.57
2022-08-03T13:09:05.386Z,34.67
2022-08-03T13:11:55.523Z,34.78
2022-08-03T13:14:24.143Z,34.76
2022-08-03T13:16:53.471Z,34.23
2022-08-03T13:19:22.780Z,34.23
2022-08-03T13:21:53.887Z,34.28
2022-08-03T13:24:34.967Z,34.49
2022-08-03T13:28:02.148Z,34.56
2022-08-03T13:29:56.267Z,34.17
2022-08-03T13:32:26.051Z,34.17
2022-08-03T13:34:57.628Z,34.35
2022-08-03T13:37:27.428Z,34.57
2022-08-03T13:39:59.147Z,34.78
2022-08-03T13:42:30.631Z,34.97
2022-08-03T13:45:00.121Z,35.03
2022-08-03T13:47:30.114Z,34.82
2022-08-03T13:50:02.494Z,34.64
2022-08-03T13:52:34.696Z,34.63
2022-08-03T13:55:06.247Z,34.67
2022-08-03T13:58:02.399Z,34.60
2022-08-03T14:00:29.355Z,34.51
2022-08-03T14:03:12.660Z,34.46
2022-08-03T14:05:43.912Z,34.51
2022-08-03T14:08:14.708Z,34.53
2022-08-03T14:10:46.671Z,34.64
2022-08-03T14:13:17.996Z,34.58
2022-08-03T14:15:49.776Z,34.56
2022-08-03T14:18:27.609Z,34.56
2022-08-03T14:21:05.007Z,34.52
2022-08-03T14:23:36.107Z,34.40
2022-08-03T14:26:05.538Z,34.52
2022-08-03T14:28:34.888Z,34.63
2022-08-03T14:31:08.250Z,34.69
2022-08-03T14:33:45.532Z,34.68
2022-08-03T14:36:14.957Z,34.70
2022-08-03T14:38:44.973Z,34.30
2022-08-03T14:41:19.973Z,34.02
2022-08-03T14:44:01.068Z,34.04
2022-08-03T14:46:32.201Z,34.06
2022-08-03T14:50:29.227Z,34.13
2022-08-03T14:51:53.816Z,34.09
2022-08-03T14:54:23.992Z,34.18
2022-08-03T14:56:53.375Z,34.32
2022-08-03T14:59:22.795Z,34.42
2022-08-03T15:02:05.545Z,34.49
2022-08-03T15:04:37.220Z,34.49
2022-08-03T15:07:06.578Z,34.59
2022-08-03T15:09:36.294Z,34.25
2022-08-03T15:12:05.816Z,34.17
2022-08-03T15:14:35.515Z,34.04
2022-08-03T15:17:07.866Z,33.99
2022-08-03T15:20:03.917Z,33.84
2022-08-03T15:22:34.359Z,33.77
2022-08-03T15:26:31.914Z,33.89
2022-08-03T15:28:03.921Z,33.98
2022-08-03T15:30:37.017Z,34.03
2022-08-03T15:33:06.487Z,34.02
2022-08-03T15:35:35.847Z,33.92
2022-08-03T15:38:09.261Z,33.82
2022-08-03T15:40:39.255Z,33.75
2022-08-03T15:43:09.123Z,33.70
2022-08-03T15:45:41.921Z,33.67
2022-08-03T15:48:13.238Z,33.62
2022-08-03T15:50:43.813Z,33.55
2022-08-03T15:53:13.193Z,33.50
2022-08-03T15:55:43.805Z,33.46
2022-08-03T15:59:10.361Z,33.41
2022-08-03T16:01:04.393Z,33.36
2022-08-03T16:03:34.701Z,33.39
2022-08-03T16:06:05.936Z,33.45
2022-08-03T16:08:35.536Z,33.41
2022-08-03T16:11:04.886Z,33.42
2022-08-03T16:14:13.749Z,33.48
2022-08-03T16:16:23.636Z,33.45
2022-08-03T16:18:53.025Z,33.43
2022-08-03T16:21:22.426Z,33.37
2022-08-03T16:23:56.759Z,33.33
2022-08-03T16:26:27.887Z,33.11
2022-08-03T16:28:59.707Z,33.05
2022-08-03T16:31:31.490Z,33.04
2022-08-03T16:34:00.795Z,33.09
2022-08-03T16:36:31.739Z,33.13
2022-08-03T16:39:04.456Z,33.18
2022-08-03T16:41:54.378Z,33.26
2022-08-03T16:44:23.601Z,33.23
2022-08-03T16:46:56.208Z,33.08
2022-08-03T16:49:53.070Z,33.06
2022-08-03T16:52:16.853Z,33.06
2022-08-03T16:54:52.850Z,33.05
2022-08-03T16:57:58.220Z,33.11
2022-08-03T17:00:33.601Z,33.06
2022-08-03T17:03:19.057Z,33.04
2022-08-03T17:05:53.473Z,33.06
2022-08-03T17:08:29.006Z,32.97
2022-08-03T17:10:59.554Z,33.02
2022-08-03T17:13:39.239Z,32.95
2022-08-03T17:16:15.139Z,32.93
2022-08-03T17:18:58.172Z,32.97
2022-08-03T17:21:34.289Z,32.95
2022-08-03T17:24:20.924Z,32.87
2022-08-03T17:26:52.764Z,32.81
2022-08-03T17:29:25.195Z,32.78
2022-08-03T17:31:59.317Z,32.75
2022-08-03T17:34:28.664Z,32.67
2022-08-03T17:37:04.103Z,32.63
2022-08-03T17:40:00.487Z,32.53
2022-08-03T17:42:29.630Z,32.45
2022-08-03T17:45:03.525Z,32.41
2022-08-03T17:47:42.578Z,32.39
2022-08-03T17:50:24.275Z,32.41
2022-08-03T17:53:07.125Z,32.39
2022-08-03T17:55:57.653Z,32.32
2022-08-03T17:58:44.901Z,32.24
2022-08-03T18:02:03.589Z,32.14
2022-08-03T18:04:30.922Z,32.06
2022-08-03T18:07:11.056Z,31.96
2022-08-03T18:12:51.841Z,31.83
2022-08-03T18:15:32.843Z,31.82
2022-08-03T18:18:11.258Z,31.81
2022-08-03T18:20:45.523Z,31.71
2022-08-03T18:26:11.904Z,31.51
2022-08-03T18:28:42.020Z,31.43
2022-08-03T18:31:59.803Z,31.36
2022-08-03T18:34:18.878Z,31.29
2022-08-03T18:36:58.811Z,31.25
2022-08-03T18:39:29.636Z,31.24
2022-08-03T18:41:58.975Z,31.05
2022-08-03T18:44:45.598Z,30.98
2022-08-03T18:47:20.780Z,30.96
2022-08-03T18:50:08.321Z,30.88
2022-08-03T18:52:52.934Z,30.81
2022-08-03T18:55:33.782Z,30.72
2022-08-03T18:58:18.138Z,30.66
2022-08-03T19:01:00.059Z,30.55
2022-08-03T19:03:43.142Z,30.45
2022-08-03T19:06:19.782Z,30.34
2022-08-03T19:08:58.290Z,30.27
2022-08-03T19:12:22.459Z,30.12
2022-08-03T19:14:57.232Z,29.97
2022-08-03T19:17:29.496Z,29.82
2022-08-03T19:20:01.586Z,29.73
2022-08-03T19:22:31.743Z,29.56
2022-08-03T19:25:03.955Z,29.45
2022-08-03T19:27:36.284Z,29.29
2022-08-03T19:30:21.915Z,29.19
2022-08-03T19:32:56.630Z,29.09
2022-08-03T19:38:27.432Z,28.90
2022-08-03T19:40:59.942Z,28.83
2022-08-03T19:43:33.047Z,28.72
2022-08-03T19:46:20.238Z,28.59
2022-08-03T19:48:58.352Z,28.47
2022-08-03T19:52:00.807Z,28.32
2022-08-03T19:54:29.660Z,28.18
2022-08-03T19:57:05.045Z,28.12
2022-08-03T19:59:49.946Z,28.08
2022-08-03T20:02:26.480Z,27.99
2022-08-03T20:04:59.770Z,27.88
2022-08-03T20:07:32.351Z,27.82
2022-08-03T20:10:04.268Z,27.77
2022-08-03T20:12:39.371Z,27.76
2022-08-03T20:15:10.536Z,27.72
2022-08-03T20:17:55.228Z,27.70
2022-08-03T20:20:35.204Z,27.71
2022-08-03T20:23:19.666Z,27.62
2022-08-03T20:26:00.606Z,27.61
2022-08-03T20:28:50.505Z,27.59
2022-08-03T20:31:32.417Z,27.53
2022-08-03T20:34:06.786Z,27.46
2022-08-03T20:36:36.269Z,27.43
2022-08-03T20:39:09.148Z,27.39
2022-08-03T20:41:39.858Z,27.33
2022-08-03T20:44:09.475Z,27.31
2022-08-03T20:46:52.934Z,27.25
2022-08-03T20:49:28.799Z,27.19
2022-08-03T20:52:01.125Z,27.14
2022-08-03T20:54:31.804Z,27.07
2022-08-03T20:57:07.159Z,27.04
2022-08-03T20:59:50.308Z,27.00
2022-08-03T21:02:30.273Z,26.95
2022-08-03T21:05:08.413Z,26.92
2022-08-03T21:08:05.983Z,26.85
2022-08-03T21:10:42.091Z,26.76
2022-08-03T21:12:57.899Z,31.59
2022-08-03T21:13:02.506Z,29.00
2022-08-03T21:13:04.463Z,31.88
2022-08-03T21:13:18.051Z,26.69
2022-08-03T21:16:12.512Z,26.65
2022-08-03T21:18:47.698Z,26.59
2022-08-03T21:21:20.270Z,26.53
2022-08-03T21:23:53.672Z,26.49
2022-08-03T21:26:25.257Z,26.35
2022-08-03T21:28:56.869Z,26.24
2022-08-03T21:31:27.228Z,26.19
2022-08-03T21:34:03.314Z,26.19
2022-08-03T21:36:35.165Z,26.18
2022-08-03T21:39:06.137Z,26.14
2022-08-03T21:41:36.122Z,26.07
2022-08-03T21:44:05.928Z,25.99
2022-08-03T21:46:41.868Z,25.94
2022-08-03T21:50:04.618Z,25.89
2022-08-03T21:52:06.836Z,25.84
2022-08-03T21:54:43.569Z,25.78
2022-08-03T21:57:28.475Z,25.76
2022-08-03T22:00:09.844Z,25.68
2022-08-03T22:02:45.529Z,25.60
2022-08-03T22:05:29.077Z,25.52
2022-08-03T22:08:12.631Z,25.47
2022-08-03T22:10:42.287Z,25.43
2022-08-03T22:13:11.796Z,25.39
2022-08-03T22:15:43.995Z,25.37
2022-08-03T22:18:13.744Z,25.35
2022-08-03T22:20:43.169Z,25.35
2022-08-03T22:23:16.400Z,25.33
2022-08-03T22:25:49.545Z,25.30
2022-08-03T22:28:19.022Z,25.28
2022-08-03T22:30:50.179Z,25.24
2022-08-03T22:33:19.655Z,25.22
2022-08-03T22:35:52.364Z,25.20
2022-08-03T22:38:21.878Z,25.16
2022-08-03T22:40:52.375Z,25.12
2022-08-03T22:43:29.711Z,25.07
2022-08-03T22:46:10.405Z,25.00
2022-08-03T22:48:43.065Z,24.95
2022-08-03T22:51:13.215Z,24.91
2022-08-03T22:53:43.288Z,24.87
2022-08-03T22:56:13.022Z,24.83
2022-08-03T22:58:42.440Z,24.78
2022-08-03T23:01:14.302Z,24.73
2022-08-03T23:04:00.129Z,24.69
2022-08-03T23:06:36.755Z,24.67
2022-08-03T23:09:15.948Z,24.69
2022-08-03T23:11:47.308Z,24.68
2022-08-03T23:14:18.975Z,24.69
2022-08-03T23:16:49.778Z,24.66
2022-08-03T23:19:25.170Z,24.64
2022-08-03T23:22:03.436Z,24.61
2022-08-03T23:24:38.098Z,24.57
2022-08-03T23:27:09.490Z,24.57
2022-08-03T23:29:41.788Z,24.57
2022-08-03T23:32:11.198Z,24.55
2022-08-03T23:34:55.078Z,24.53
2022-08-03T23:37:24.706Z,24.49
2022-08-03T23:39:55.408Z,24.51
2022-08-03T23:42:25.987Z,24.48
2022-08-03T23:45:05.651Z,24.41
2022-08-03T23:47:46.235Z,24.40
2022-08-03T23:50:17.003Z,24.38
2022-08-03T23:53:04.994Z,24.37
2022-08-03T23:55:40.328Z,24.38
2022-08-03T23:58:19.842Z,24.38
